Ishizuchi — 3ESS5 — position and weather

sailwx.info

Track history (hours):
 
Tides and Currents Weather Stations Pressure Air Temp Water Temp Dewpoint Dewpoint Depression Visibility Wind Speed Wind Dir Waves Ship Positions

Ishizuchi

Last reported at 2018-May-19 08:44 UTC. Time now 2018-Jun-20 19:11 UTC.
Position S 27°03' E 153°38'.
Warning: this ship's position is 32 days out of date.

Length 229 m; draft 12.8 m.

Type: Cargo ship. MMSI: 370410000.

Date/timePositionNaut miles runAvg speedWind from/ knotsBaromVisibWave heightAir tempDewpointWater temp
2018-May-19 08:44S 27°03' E 153°38'313.1
2018-May-19 08:31S 27°06' E 153°38'813.2
2018-May-19 07:52S 27°15' E 153°38'2113.4
2018-May-19 06:17S 27°36' E 153°41'312.8
2018-May-19 06:01S 27°39' E 153°40'712.6
2018-May-19 05:30S 27°46' E 153°40'612.0
2018-May-19 05:01S 27°51' E 153°39'612.3
2018-May-19 04:30S 27°58' E 153°40'28511.1
2018-May-18 02:54S 32°37' E 152°32'512.2
2018-May-18 02:30S 32°40' E 152°28'612.8
2018-May-18 02:00S 32°45' E 152°23'612.9
2018-May-18 01:31S 32°49' E 152°18'612.7
2018-May-18 01:00S 32°52' E 152°11'612.8
2018-May-18 00:30S 32°54' E 152°03'612.7
2018-May-18 00:01S 32°55' E 151°56'510.4
2018-May-17 23:30S 32°57' E 151°50'3 5.6
2018-May-17 23:00S 32°55' E 151°48'2 3.2
2018-May-17 22:30S 32°54' E 151°46'1 1.9
2018-May-17 22:00S 32°53' E 151°46'0 0.1
2018-May-17 21:30S 32°53' E 151°46'0 0.0
2018-May-17 21:00S 32°53' E 151°46'0 0.0
2018-May-17 20:30S 32°53' E 151°46'0 0.0
2018-May-17 20:00S 32°53' E 151°46'0 0.0
2018-May-17 19:30S 32°53' E 151°46'0 0.0
2018-May-17 19:00S 32°53' E 151°46'0 0.0
2018-May-17 18:30S 32°53' E 151°46'0 0.0
2018-May-17 18:00S 32°53' E 151°46'0 0.0
2018-May-17 17:30S 32°53' E 151°46'0 0.0
2018-May-17 17:00S 32°53' E 151°46'0 0.0
2018-May-17 16:30S 32°53' E 151°46'0 0.0
2018-May-17 16:00S 32°53' E 151°46'0 0.0
2018-May-17 15:15S 32°53' E 151°46'0 0.0
2018-May-17 15:00S 32°53' E 151°46'0 0.0
2018-May-17 14:30S 32°53' E 151°46'0 0.0
2018-May-17 14:00S 32°53' E 151°46'0 0.0
2018-May-17 13:30S 32°53' E 151°46'0 0.0
2018-May-17 13:00S 32°53' E 151°46'0 0.0
2018-May-17 12:30S 32°53' E 151°46'0 0.0
2018-May-17 11:51S 32°53' E 151°46'0 0.0
2018-May-17 11:30S 32°53' E 151°46'0 0.0
2018-May-17 11:00S 32°53' E 151°46'0 0.0
2018-May-17 10:30S 32°53' E 151°46'0 0.0
2018-May-17 09:39S 32°53' E 151°46'0 0.0
2018-May-17 09:30S 32°53' E 151°46'0 0.0
2018-May-17 08:57S 32°53' E 151°46'0 0.1
2018-May-17 08:24S 32°53' E 151°46'0 0.0
2018-May-17 07:54S 32°53' E 151°46'0 0.1
2018-May-17 07:27S 32°53' E 151°46'0 0.0
2018-May-17 06:57S 32°53' E 151°46'0 0.0
2018-May-17 06:27S 32°53' E 151°46'0 0.0
2018-May-17 06:00S 32°53' E 151°46'0 0.1
2018-May-17 05:31S 32°53' E 151°46'1 1.8
2018-May-17 05:00S 32°54' E 151°46'2 3.6
2018-May-17 04:30S 32°55' E 151°48'4 8.1
2018-May-17 04:01S 32°58' E 151°52'3 5.3
2018-May-17 03:31S 32°60' E 151°53'3 6.3
2018-May-17 03:00S 33°02' E 151°56'1 2.6
2018-May-17 02:30S 33°03' E 151°56'0 0.8
2018-May-17 02:01S 33°04' E 151°56'1 1.4
2018-May-17 01:28S 33°03' E 151°57'1 1.3
2018-May-17 00:58S 33°04' E 151°57'1 1.3
2018-May-17 00:28S 33°04' E 151°58'1 1.4
2018-May-16 23:58S 33°05' E 151°58'1 1.3
2018-May-16 23:28S 33°05' E 151°59'1 1.3
2018-May-16 22:58S 33°05' E 151°60'1 1.3
2018-May-16 22:28S 33°06' E 152°00'1 1.3
2018-May-16 21:58S 33°06' E 152°01'1 1.2
2018-May-16 21:28S 33°07' E 152°01'1 1.1
2018-May-16 20:58S 33°07' E 152°02'1 1.2
2018-May-16 20:22S 33°07' E 152°02'1 1.3
2018-May-16 19:55S 33°08' E 152°03'1 1.3
2018-May-16 19:28S 33°08' E 152°04'1 1.1
2018-May-16 18:58S 33°08' E 152°04'1 2.7
2018-May-16 18:30S 33°07' E 152°04'611.7
2018-May-16 18:00S 33°02' E 152°01'3 6.6
2018-May-16 17:30S 32°59' E 152°02'713.5
2018-May-16 17:00S 32°55' E 152°08'713.6
2018-May-16 16:30S 32°51' E 152°15'613.0
2018-May-16 16:00S 32°47' E 152°20'612.8
2018-May-16 15:30S 32°42' E 152°26'612.4
2018-May-16 15:00S 32°38' E 152°31'612.7
2018-May-16 14:30S 32°33' E 152°37'612.6
2018-May-16 14:00S 32°29' E 152°42'2112.4
2018-May-16 12:16S 32°08' E 152°47'25412.7
2018-May-15 16:22S 27°59' E 153°42'412.6
2018-May-15 16:00S 27°54' E 153°42'612.7
2018-May-15 15:30S 27°48' E 153°43'712.7
2018-May-15 14:58S 27°41' E 153°43'612.6
2018-May-15 14:29S 27°35' E 153°43'1112.1
2018-May-15 13:35S 27°24' E 153°42'112.0
2018-May-15 13:28S 27°23' E 153°42'711.7
2018-May-15 12:53S 27°16' E 153°41'611.6
2018-May-15 12:23S 27°10' E 153°39'411.4
2018-May-15 12:00S 27°06' E 153°39'611.6
2018-May-15 11:29S 26°60' E 153°39'  
Track history (hours):
 
Tides and Currents Weather Stations Pressure Air Temp Water Temp Dewpoint Dewpoint Depression Visibility Wind Speed Wind Dir Waves Ship Positions

Ishizuchi

Last reported at 2018-May-19 08:44 UTC. Time now 2018-Jun-20 19:11 UTC.
Position S 27°03' E 153°38'.
Warning: this ship's position is 32 days out of date.

Length 229 m; draft 12.8 m.

Type: Cargo ship. MMSI: 370410000.

Date/timePositionNaut miles runAvg speedWind from/ knotsBaromVisibWave heightAir tempDewpointWater temp
2018-May-19 08:44S 27°03' E 153°38'313.1
2018-May-19 08:31S 27°06' E 153°38'813.2
2018-May-19 07:52S 27°15' E 153°38'2113.4
2018-May-19 06:17S 27°36' E 153°41'312.8
2018-May-19 06:01S 27°39' E 153°40'712.6
2018-May-19 05:30S 27°46' E 153°40'612.0
2018-May-19 05:01S 27°51' E 153°39'612.3
2018-May-19 04:30S 27°58' E 153°40'28511.1
2018-May-18 02:54S 32°37' E 152°32'512.2
2018-May-18 02:30S 32°40' E 152°28'612.8
2018-May-18 02:00S 32°45' E 152°23'612.9
2018-May-18 01:31S 32°49' E 152°18'612.7
2018-May-18 01:00S 32°52' E 152°11'612.8
2018-May-18 00:30S 32°54' E 152°03'612.7
2018-May-18 00:01S 32°55' E 151°56'510.4
2018-May-17 23:30S 32°57' E 151°50'3 5.6
2018-May-17 23:00S 32°55' E 151°48'2 3.2
2018-May-17 22:30S 32°54' E 151°46'1 1.9
2018-May-17 22:00S 32°53' E 151°46'0 0.1
2018-May-17 21:30S 32°53' E 151°46'0 0.0
2018-May-17 21:00S 32°53' E 151°46'0 0.0
2018-May-17 20:30S 32°53' E 151°46'0 0.0
2018-May-17 20:00S 32°53' E 151°46'0 0.0
2018-May-17 19:30S 32°53' E 151°46'0 0.0
2018-May-17 19:00S 32°53' E 151°46'0 0.0
2018-May-17 18:30S 32°53' E 151°46'0 0.0
2018-May-17 18:00S 32°53' E 151°46'0 0.0
2018-May-17 17:30S 32°53' E 151°46'0 0.0
2018-May-17 17:00S 32°53' E 151°46'0 0.0
2018-May-17 16:30S 32°53' E 151°46'0 0.0
2018-May-17 16:00S 32°53' E 151°46'0 0.0
2018-May-17 15:15S 32°53' E 151°46'0 0.0
2018-May-17 15:00S 32°53' E 151°46'0 0.0
2018-May-17 14:30S 32°53' E 151°46'0 0.0
2018-May-17 14:00S 32°53' E 151°46'0 0.0
2018-May-17 13:30S 32°53' E 151°46'0 0.0
2018-May-17 13:00S 32°53' E 151°46'0 0.0
2018-May-17 12:30S 32°53' E 151°46'0 0.0
2018-May-17 11:51S 32°53' E 151°46'0 0.0
2018-May-17 11:30S 32°53' E 151°46'0 0.0
2018-May-17 11:00S 32°53' E 151°46'0 0.0
2018-May-17 10:30S 32°53' E 151°46'0 0.0
2018-May-17 09:39S 32°53' E 151°46'0 0.0
2018-May-17 09:30S 32°53' E 151°46'0 0.0
2018-May-17 08:57S 32°53' E 151°46'0 0.1
2018-May-17 08:24S 32°53' E 151°46'0 0.0
2018-May-17 07:54S 32°53' E 151°46'0 0.1
2018-May-17 07:27S 32°53' E 151°46'0 0.0
2018-May-17 06:57S 32°53' E 151°46'0 0.0
2018-May-17 06:27S 32°53' E 151°46'0 0.0
2018-May-17 06:00S 32°53' E 151°46'0 0.1
2018-May-17 05:31S 32°53' E 151°46'1 1.8
2018-May-17 05:00S 32°54' E 151°46'2 3.6
2018-May-17 04:30S 32°55' E 151°48'4 8.1
2018-May-17 04:01S 32°58' E 151°52'3 5.3
2018-May-17 03:31S 32°60' E 151°53'3 6.3
2018-May-17 03:00S 33°02' E 151°56'1 2.6
2018-May-17 02:30S 33°03' E 151°56'0 0.8
2018-May-17 02:01S 33°04' E 151°56'1 1.4
2018-May-17 01:28S 33°03' E 151°57'1 1.3
2018-May-17 00:58S 33°04' E 151°57'1 1.3
2018-May-17 00:28S 33°04' E 151°58'1 1.4
2018-May-16 23:58S 33°05' E 151°58'1 1.3
2018-May-16 23:28S 33°05' E 151°59'1 1.3
2018-May-16 22:58S 33°05' E 151°60'1 1.3
2018-May-16 22:28S 33°06' E 152°00'1 1.3
2018-May-16 21:58S 33°06' E 152°01'1 1.2
2018-May-16 21:28S 33°07' E 152°01'1 1.1
2018-May-16 20:58S 33°07' E 152°02'1 1.2
2018-May-16 20:22S 33°07' E 152°02'1 1.3
2018-May-16 19:55S 33°08' E 152°03'1 1.3
2018-May-16 19:28S 33°08' E 152°04'1 1.1
2018-May-16 18:58S 33°08' E 152°04'1 2.7
2018-May-16 18:30S 33°07' E 152°04'611.7
2018-May-16 18:00S 33°02' E 152°01'3 6.6
2018-May-16 17:30S 32°59' E 152°02'713.5
2018-May-16 17:00S 32°55' E 152°08'713.6
2018-May-16 16:30S 32°51' E 152°15'613.0
2018-May-16 16:00S 32°47' E 152°20'612.8
2018-May-16 15:30S 32°42' E 152°26'612.4
2018-May-16 15:00S 32°38' E 152°31'612.7
2018-May-16 14:30S 32°33' E 152°37'612.6
2018-May-16 14:00S 32°29' E 152°42'2112.4
2018-May-16 12:16S 32°08' E 152°47'25412.7
2018-May-15 16:22S 27°59' E 153°42'412.6
2018-May-15 16:00S 27°54' E 153°42'612.7
2018-May-15 15:30S 27°48' E 153°43'712.7
2018-May-15 14:58S 27°41' E 153°43'612.6
2018-May-15 14:29S 27°35' E 153°43'1112.1
2018-May-15 13:35S 27°24' E 153°42'112.0
2018-May-15 13:28S 27°23' E 153°42'711.7
2018-May-15 12:53S 27°16' E 153°41'611.6
2018-May-15 12:23S 27°10' E 153°39'411.4
2018-May-15 12:00S 27°06' E 153°39'611.6
2018-May-15 11:29S 26°60' E 153°39'  

Dump ship's entire track history